Time;durP1;ratioP1;P1;durP2;ratioP2;P2;SDS_P1;SDS_P2;PMS_P1;PMS_P2;Temp;Humidity;BMP_temperature;BMP_pressure;BME280_temperature;BME280_humidity;BME280_pressure;Samples;Min_cycle;Max_cycle;Signal;HPM_P1;HPM_P2
2023/03/13 00:01:11;;;;;;;33.85;5.30;;;9.00;99.90;;;;;;4992258;28;20441;-50
2023/03/13 00:03:37;;;;;;;24.05;5.25;;;9.00;99.90;;;;;;4992418;28;20042;-50
2023/03/13 00:06:02;;;;;;;27.05;5.93;;;9.00;99.90;;;;;;4990876;28;20445;-51
2023/03/13 00:08:29;;;;;;;27.30;6.20;;;9.00;99.90;;;;;;4992032;28;20042;-48
2023/03/13 00:10:55;;;;;;;27.92;5.80;;;8.90;99.90;;;;;;4992373;28;20050;-48
2023/03/13 00:13:21;;;;;;;25.73;5.60;;;9.00;99.90;;;;;;4992093;28;20077;-50
2023/03/13 00:15:47;;;;;;;27.70;5.35;;;9.00;99.90;;;;;;4992503;28;20049;-47
2023/03/13 00:18:12;;;;;;;22.17;5.25;;;9.00;99.90;;;;;;4991361;28;20046;-46
2023/03/13 00:20:38;;;;;;;32.20;5.95;;;9.00;99.90;;;;;;4991862;28;20034;-48
2023/03/13 00:23:04;;;;;;;22.20;4.82;;;9.00;99.90;;;;;;4992221;28;20122;-50
2023/03/13 00:25:30;;;;;;;31.30;5.70;;;9.00;99.90;;;;;;4991604;28;20405;-47
2023/03/13 00:27:55;;;;;;;26.35;5.82;;;9.00;99.90;;;;;;4991975;28;20186;-48
2023/03/13 00:30:21;;;;;;;24.02;5.30;;;8.90;99.90;;;;;;4991931;28;20394;-48
2023/03/13 00:32:47;;;;;;;25.98;5.43;;;8.90;99.90;;;;;;4992069;28;20049;-47
2023/03/13 00:35:14;;;;;;;24.38;5.63;;;8.90;99.90;;;;;;4991511;28;20042;-45
2023/03/13 00:37:40;;;;;;;26.33;5.57;;;9.00;99.90;;;;;;4991925;28;20082;-47
2023/03/13 00:40:07;;;;;;;26.17;5.00;;;8.90;99.90;;;;;;4992180;28;20081;-49
2023/03/13 00:42:33;;;;;;;31.10;6.03;;;8.90;99.90;;;;;;4991554;28;20053;-47
2023/03/13 00:44:59;;;;;;;24.50;5.00;;;8.80;99.90;;;;;;4991659;28;20049;-48
2023/03/13 00:47:25;;;;;;;22.85;5.55;;;8.90;99.90;;;;;;4991091;28;20038;-49
2023/03/13 00:49:50;;;;;;;26.73;5.30;;;8.80;99.90;;;;;;4989884;28;20042;-48
2023/03/13 00:52:16;;;;;;;24.67;4.80;;;8.90;99.90;;;;;;4991765;28;20030;-50
2023/03/13 00:54:42;;;;;;;28.60;5.22;;;8.90;99.90;;;;;;4991241;28;20046;-48
2023/03/13 00:57:08;;;;;;;32.70;5.43;;;9.00;99.90;;;;;;4991187;28;20038;-50
2023/03/13 00:59:34;;;;;;;34.08;5.93;;;8.90;99.90;;;;;;4991319;28;20053;-47
2023/03/13 01:01:59;;;;;;;29.20;5.40;;;9.00;99.90;;;;;;4990050;28;20034;-49
2023/03/13 01:04:25;;;;;;;27.80;4.88;;;8.80;99.90;;;;;;4991629;28;20034;-45
2023/03/13 01:06:51;;;;;;;27.75;5.25;;;9.00;99.90;;;;;;4991138;28;20493;-47
2023/03/13 01:09:17;;;;;;;23.23;5.13;;;9.00;99.90;;;;;;4991185;28;20064;-47
2023/03/13 01:11:44;;;;;;;26.65;5.28;;;9.00;99.90;;;;;;4989743;28;20050;-47
2023/03/13 01:14:16;;;;;;;23.52;5.43;;;8.90;99.90;;;;;;4991083;28;20038;-48
2023/03/13 01:16:42;;;;;;;30.77;6.82;;;9.00;99.90;;;;;;4990840;28;20442;-48
2023/03/13 01:19:10;;;;;;;21.95;5.00;;;8.90;99.90;;;;;;4990377;28;20038;-50
2023/03/13 01:21:37;;;;;;;28.75;5.90;;;8.80;99.90;;;;;;4991260;28;20031;-47
2023/03/13 01:24:03;;;;;;;26.52;5.72;;;8.80;99.90;;;;;;4973305;28;20034;-49
2023/03/13 01:26:29;;;;;;;20.67;5.28;;;8.90;99.90;;;;;;4990965;28;20104;-47
2023/03/13 01:28:55;;;;;;;24.95;6.25;;;8.90;99.90;;;;;;4991018;28;20038;-48
2023/03/13 01:31:24;;;;;;;25.33;5.50;;;8.80;99.90;;;;;;4990544;28;20166;-49
2023/03/13 01:33:53;;;;;;;30.90;5.75;;;8.80;99.90;;;;;;4990980;28;20042;-49
2023/03/13 01:36:19;;;;;;;25.50;5.80;;;8.80;99.90;;;;;;4990706;28;20061;-51
2023/03/13 01:38:48;;;;;;;27.23;6.28;;;8.80;99.90;;;;;;4991018;28;20034;-50
2023/03/13 01:41:14;;;;;;;30.73;6.10;;;8.70;99.90;;;;;;4990905;28;20126;-48
2023/03/13 01:43:40;;;;;;;23.92;6.07;;;8.80;99.90;;;;;;4987357;28;20507;-48
2023/03/13 01:46:17;;;;;;;25.70;5.72;;;8.80;99.90;;;;;;4988079;28;20129;-50
2023/03/13 01:48:48;;;;;;;23.92;6.53;;;8.90;99.90;;;;;;4990115;28;20104;-49
2023/03/13 01:51:25;;;;;;;29.65;6.85;;;8.80;99.90;;;;;;4989241;28;20764;-46
2023/03/13 01:53:57;;;;;;;22.88;5.90;;;8.90;99.90;;;;;;4989242;28;20046;-48
2023/03/13 01:56:32;;;;;;;22.88;6.18;;;8.70;99.90;;;;;;4990699;28;20043;-49
2023/03/13 01:58:58;;;;;;;25.67;7.03;;;8.60;99.90;;;;;;4992839;28;20073;-48
2023/03/13 02:01:25;;;;;;;28.75;6.65;;;8.70;99.90;;;;;;4993348;28;20048;-48
2023/03/13 02:03:52;;;;;;;30.40;7.03;;;8.50;99.90;;;;;;4994370;28;20039;-45
2023/03/13 02:06:18;;;;;;;23.88;7.10;;;8.60;99.90;;;;;;4994848;28;20073;-47
2023/03/13 02:08:55;;;;;;;30.48;7.28;;;8.60;99.90;;;;;;4993057;28;20050;-50
2023/03/13 02:11:42;;;;;;;34.50;8.02;;;8.70;99.90;;;;;;4994538;28;20390;-51
2023/03/13 02:14:08;;;;;;;21.90;6.68;;;8.50;99.90;;;;;;4994925;28;20401;-50
2023/03/13 02:16:35;;;;;;;27.98;7.35;;;8.70;99.90;;;;;;4994581;28;20073;-47
2023/03/13 02:19:23;;;;;;;20.70;6.75;;;8.60;99.90;;;;;;4992278;28;20046;-50
2023/03/13 02:22:15;;;;;;;24.00;7.45;;;8.50;99.90;;;;;;4975764;28;20101;-50
2023/03/13 02:24:59;;;;;;;18.23;6.70;;;8.70;99.90;;;;;;4969086;28;20051;-48
2023/03/13 02:27:25;;;;;;;22.23;7.18;;;8.80;99.90;;;;;;4993410;28;20474;-47
2023/03/13 02:29:52;;;;;;;18.75;6.45;;;8.80;99.90;;;;;;4994335;28;20105;-49
2023/03/13 02:32:18;;;;;;;21.65;6.28;;;8.80;99.90;;;;;;4994253;28;20089;-49
2023/03/13 02:34:47;;;;;;;21.23;7.32;;;8.70;99.90;;;;;;4993069;28;20078;-49
2023/03/13 02:37:14;;;;;;;22.13;6.32;;;8.60;99.90;;;;;;4994287;28;20124;-47
2023/03/13 02:39:47;;;;;;;22.92;6.07;;;9.00;99.90;;;;;;4994701;28;20082;-49
2023/03/13 02:42:16;;;;;;;24.25;7.88;;;8.70;99.90;;;;;;4995335;28;20474;-48
2023/03/13 02:44:43;;;;;;;18.75;6.80;;;8.70;99.90;;;;;;4994456;28;20034;-49
2023/03/13 02:47:09;;;;;;;15.73;6.70;;;8.90;99.90;;;;;;4993391;28;20465;-46
2023/03/13 02:49:35;;;;;;;22.00;7.03;;;9.10;99.90;;;;;;4993044;28;20046;-50
2023/03/13 02:52:20;;;;;;;19.60;7.00;;;8.70;99.90;;;;;;4993885;28;20045;-49
2023/03/13 02:54:51;;;;;;;20.98;6.53;;;8.80;99.90;;;;;;4993920;28;20081;-47
2023/03/13 02:57:17;;;;;;;15.55;7.43;;;8.80;99.90;;;;;;4994420;28;20037;-50
2023/03/13 02:59:43;;;;;;;13.32;6.32;;;9.10;99.90;;;;;;4994397;28;20038;-49
2023/03/13 03:02:09;;;;;;;16.20;6.20;;;9.10;99.90;;;;;;4993111;28;20482;-47
2023/03/13 03:04:34;;;;;;;14.50;6.90;;;9.10;99.90;;;;;;4993642;28;20133;-50
2023/03/13 03:07:00;;;;;;;14.27;5.88;;;9.20;99.90;;;;;;4993711;28;20044;-48
2023/03/13 03:09:26;;;;;;;13.00;6.10;;;9.50;99.90;;;;;;4993854;28;20038;-49
2023/03/13 03:11:51;;;;;;;11.15;5.90;;;9.50;99.90;;;;;;4994326;28;20042;-49
2023/03/13 03:14:17;;;;;;;13.10;5.72;;;9.10;99.90;;;;;;4994341;28;20398;-51
2023/03/13 03:16:44;;;;;;;12.43;6.70;;;9.60;99.90;;;;;;4992040;28;20038;-52
2023/03/13 03:19:10;;;;;;;12.15;5.88;;;9.70;99.90;;;;;;4993069;28;20034;-49
2023/03/13 03:21:36;;;;;;;12.25;6.90;;;9.70;99.90;;;;;;4992311;28;20038;-50
2023/03/13 03:24:03;;;;;;;12.82;6.57;;;9.30;99.90;;;;;;4993132;28;20041;-47
2023/03/13 03:26:28;;;;;;;12.48;7.28;;;9.60;99.90;;;;;;4993256;28;20042;-49
2023/03/13 03:28:54;;;;;;;12.88;6.95;;;9.90;99.90;;;;;;4992945;28;20100;-47
2023/03/13 03:31:20;;;;;;;13.45;7.40;;;9.60;99.90;;;;;;4992584;28;20034;-49
2023/03/13 03:33:46;;;;;;;14.00;7.28;;;9.70;99.90;;;;;;4993310;28;20370;-51
2023/03/13 03:36:15;;;;;;;14.18;7.63;;;9.50;99.90;;;;;;4993066;28;20042;-49
2023/03/13 03:38:42;;;;;;;12.85;7.35;;;10.00;99.90;;;;;;4993101;28;20482;-50
2023/03/13 03:41:09;;;;;;;15.82;8.02;;;9.60;99.90;;;;;;4992690;28;20740;-49
2023/03/13 03:43:35;;;;;;;14.93;8.20;;;9.90;99.90;;;;;;4992608;28;20034;-51
2023/03/13 03:46:01;;;;;;;13.40;7.82;;;10.10;99.90;;;;;;4992967;28;20042;-48
2023/03/13 03:48:27;;;;;;;15.63;8.02;;;10.10;99.90;;;;;;4992716;28;20560;-51
2023/03/13 03:50:53;;;;;;;15.10;8.27;;;9.80;99.90;;;;;;4992815;28;20070;-52
2023/03/13 03:53:19;;;;;;;13.98;8.60;;;10.20;99.90;;;;;;4992957;28;20394;-52
2023/03/13 03:55:44;;;;;;;14.05;8.57;;;10.20;99.90;;;;;;4992768;28;20061;-50
2023/03/13 03:58:10;;;;;;;15.10;9.00;;;10.00;99.90;;;;;;4992058;28;20498;-52
2023/03/13 04:00:36;;;;;;;14.25;8.18;;;10.00;99.90;;;;;;4992672;28;20117;-47
2023/03/13 04:03:02;;;;;;;16.33;8.65;;;10.40;99.90;;;;;;4992816;28;20053;-48
2023/03/13 04:05:28;;;;;;;14.70;8.55;;;10.40;99.90;;;;;;4991297;28;20105;-50
2023/03/13 04:07:54;;;;;;;17.08;9.55;;;10.00;99.90;;;;;;4993010;28;20052;-48
2023/03/13 04:10:20;;;;;;;16.05;9.43;;;10.40;99.90;;;;;;4992391;28;20038;-51
2023/03/13 04:12:46;;;;;;;14.77;9.90;;;10.40;99.90;;;;;;4991629;28;20072;-49
2023/03/13 04:15:11;;;;;;;15.63;10.38;;;10.00;99.90;;;;;;4992751;28;20121;-51
2023/03/13 04:17:37;;;;;;;17.77;11.45;;;10.20;99.90;;;;;;4992127;28;20072;-50
2023/03/13 04:20:04;;;;;;;21.30;12.73;;;10.30;99.90;;;;;;4991839;28;20042;-45
2023/03/13 04:22:29;;;;;;;23.40;12.88;;;10.60;99.90;;;;;;4991754;28;20034;-47
2023/03/13 04:24:55;;;;;;;21.30;13.68;;;10.30;99.90;;;;;;4991132;28;20065;-48
2023/03/13 04:27:21;;;;;;;25.08;13.77;;;10.70;99.90;;;;;;4992914;28;20053;-50
2023/03/13 04:29:47;;;;;;;24.00;14.25;;;10.30;99.90;;;;;;4992564;28;20065;-49
2023/03/13 04:32:12;;;;;;;24.90;14.25;;;10.30;99.90;;;;;;4992251;28;20046;-49
2023/03/13 04:34:38;;;;;;;26.65;16.77;;;10.30;99.90;;;;;;4991771;28;20034;-48
2023/03/13 04:37:04;;;;;;;24.75;16.38;;;10.80;99.90;;;;;;4992043;28;20113;-50
2023/03/13 04:39:29;;;;;;;27.13;16.98;;;10.70;99.90;;;;;;4991770;28;20042;-52
2023/03/13 04:41:55;;;;;;;26.15;15.85;;;11.00;99.90;;;;;;4992028;28;20049;-48
2023/03/13 04:44:22;;;;;;;27.65;16.88;;;11.00;99.90;;;;;;4974180;28;20121;-50
2023/03/13 04:46:47;;;;;;;28.40;16.35;;;10.90;99.90;;;;;;4991948;28;20027;-48
2023/03/13 04:49:14;;;;;;;27.80;16.63;;;11.00;99.90;;;;;;4991472;28;20053;-49
2023/03/13 04:51:43;;;;;;;22.75;15.02;;;11.10;99.90;;;;;;4990757;28;20042;-51
2023/03/13 04:54:08;;;;;;;24.98;15.32;;;11.00;99.90;;;;;;4991284;28;20042;-48
2023/03/13 04:56:34;;;;;;;22.00;14.32;;;11.10;99.90;;;;;;4991709;28;20125;-52
2023/03/13 04:59:00;;;;;;;22.85;14.43;;;11.20;99.90;;;;;;4991212;28;20060;-48
2023/03/13 05:01:25;;;;;;;25.45;14.52;;;11.10;99.90;;;;;;4991752;28;20042;-48
2023/03/13 05:03:51;;;;;;;22.40;13.82;;;11.20;99.90;;;;;;4990355;28;20072;-48
2023/03/13 05:06:17;;;;;;;25.15;14.35;;;10.70;99.90;;;;;;4991697;28;20045;-51
2023/03/13 05:08:43;;;;;;;24.58;13.88;;;11.20;99.90;;;;;;4991360;28;20100;-49
2023/03/13 05:11:09;;;;;;;23.48;13.40;;;11.20;99.90;;;;;;4991745;28;20042;-52
2023/03/13 05:13:34;;;;;;;22.58;13.98;;;10.90;99.90;;;;;;4992027;28;20085;-49
2023/03/13 05:16:00;;;;;;;18.02;12.13;;;11.20;99.90;;;;;;4991881;28;20073;-51
2023/03/13 05:18:26;;;;;;;23.48;13.73;;;11.10;99.90;;;;;;4990817;28;20035;-53
2023/03/13 05:20:52;;;;;;;18.95;12.73;;;10.80;99.90;;;;;;4991297;28;20093;-48
2023/03/13 05:23:18;;;;;;;25.13;12.85;;;11.30;99.90;;;;;;4991223;28;20417;-49
2023/03/13 05:25:43;;;;;;;18.25;12.32;;;11.40;99.90;;;;;;4989850;28;20116;-49
2023/03/13 05:28:10;;;;;;;18.50;12.15;;;10.90;99.90;;;;;;4991347;28;20042;-52
2023/03/13 05:30:36;;;;;;;17.98;11.65;;;11.40;99.90;;;;;;4991009;28;20057;-52
2023/03/13 05:33:02;;;;;;;18.67;11.95;;;10.80;99.90;;;;;;4990427;28;20035;-50
2023/03/13 05:35:27;;;;;;;17.20;11.60;;;11.30;99.90;;;;;;4991201;28;20045;-52
2023/03/13 05:37:53;;;;;;;20.30;11.25;;;11.10;99.90;;;;;;4991381;28;20509;-46
2023/03/13 05:40:18;;;;;;;19.95;10.75;;;11.10;99.90;;;;;;4990525;28;20046;-51
2023/03/13 05:42:44;;;;;;;15.27;10.43;;;10.90;99.90;;;;;;4991154;28;20038;-45
2023/03/13 05:45:11;;;;;;;20.52;11.27;;;11.00;99.90;;;;;;4990326;28;20069;-48
2023/03/13 05:47:37;;;;;;;15.50;10.93;;;10.90;99.90;;;;;;4986198;28;20035;-48
2023/03/13 05:50:05;;;;;;;17.73;10.30;;;10.90;99.90;;;;;;4989488;28;20122;-50
2023/03/13 05:52:31;;;;;;;21.70;10.93;;;11.10;99.90;;;;;;4990703;28;20466;-47
2023/03/13 05:54:57;;;;;;;15.02;10.07;;;11.30;99.90;;;;;;4989403;28;20363;-46
2023/03/13 05:57:23;;;;;;;15.50;10.70;;;10.90;99.90;;;;;;4990939;28;20137;-50
2023/03/13 05:59:48;;;;;;;19.48;10.82;;;11.90;99.90;;;;;;4989279;28;20082;-49
2023/03/13 06:02:14;;;;;;;16.40;9.98;;;11.30;99.90;;;;;;4990893;28;20042;-46
2023/03/13 06:04:40;;;;;;;15.75;10.15;;;11.60;99.90;;;;;;4989021;28;20438;-48
2023/03/13 06:07:05;;;;;;;14.55;9.18;;;11.40;99.90;;;;;;4989498;28;20367;-50
2023/03/13 06:09:31;;;;;;;17.90;9.60;;;11.40;99.90;;;;;;4989024;28;20053;-51
2023/03/13 06:11:57;;;;;;;16.83;8.95;;;11.20;99.90;;;;;;4990439;28;20046;-49
2023/03/13 06:14:23;;;;;;;15.63;9.32;;;11.20;99.90;;;;;;4991139;28;20121;-46
2023/03/13 06:16:49;;;;;;;13.70;8.15;;;11.30;99.90;;;;;;4990961;28;20100;-48
2023/03/13 06:19:14;;;;;;;18.83;8.13;;;11.70;99.90;;;;;;4990326;28;20038;-49
2023/03/13 06:21:40;;;;;;;17.55;8.25;;;11.40;99.90;;;;;;4990359;28;20034;-47
2023/03/13 06:24:06;;;;;;;14.70;7.15;;;11.50;99.90;;;;;;4990683;28;20038;-50
2023/03/13 06:26:32;;;;;;;11.77;6.63;;;11.50;99.90;;;;;;4990395;28;20054;-48
2023/03/13 06:28:57;;;;;;;17.40;7.03;;;11.90;99.90;;;;;;4990300;28;20505;-48
2023/03/13 06:31:23;;;;;;;13.27;6.15;;;12.00;99.90;;;;;;4990448;28;20038;-50
2023/03/13 06:33:53;;;;;;;12.90;5.97;;;12.00;99.90;;;;;;4989160;28;20042;-50
2023/03/13 06:36:19;;;;;;;15.40;6.03;;;11.70;99.90;;;;;;4990562;28;20045;-49
2023/03/13 06:38:45;;;;;;;13.40;5.13;;;11.70;99.90;;;;;;4990225;28;20050;-51
2023/03/13 06:41:10;;;;;;;13.73;5.97;;;11.70;99.90;;;;;;4990138;28;20034;-48
2023/03/13 06:43:39;;;;;;;17.90;5.93;;;12.00;99.90;;;;;;4988944;28;20039;-51
2023/03/13 06:46:05;;;;;;;17.23;5.90;;;11.70;99.90;;;;;;4993803;28;20548;-50
2023/03/13 06:48:31;;;;;;;15.30;5.22;;;11.80;99.90;;;;;;4993689;28;20039;-47
2023/03/13 06:50:57;;;;;;;12.30;4.72;;;11.70;99.90;;;;;;4993927;28;20042;-50
2023/03/13 06:53:23;;;;;;;13.20;5.22;;;12.00;99.90;;;;;;4993844;28;20442;-50
2023/03/13 06:55:49;;;;;;;15.73;5.10;;;11.90;99.90;;;;;;4994397;28;20497;-49
2023/03/13 06:58:15;;;;;;;13.35;4.68;;;12.00;99.90;;;;;;4994191;28;20034;-46
2023/03/13 07:00:43;;;;;;;13.13;5.43;;;11.90;99.90;;;;;;4994188;28;20034;-52
2023/03/13 07:03:09;;;;;;;11.82;4.60;;;11.90;99.90;;;;;;4992142;28;20117;-50
2023/03/13 07:05:36;;;;;;;14.18;4.50;;;11.90;99.90;;;;;;4992261;28;20112;-51
2023/03/13 07:08:03;;;;;;;12.25;4.40;;;12.00;99.90;;;;;;4993707;28;20038;-47
2023/03/13 07:10:30;;;;;;;13.50;3.80;;;11.90;99.90;;;;;;4993777;28;20050;-51
2023/03/13 07:12:56;;;;;;;11.55;4.45;;;12.10;99.90;;;;;;4994427;28;20042;-50
2023/03/13 07:15:21;;;;;;;11.05;4.20;;;12.10;99.90;;;;;;4994274;28;20100;-50
2023/03/13 07:17:47;;;;;;;12.85;4.63;;;12.10;99.90;;;;;;4993322;28;20390;-48
2023/03/13 07:20:13;;;;;;;12.93;4.13;;;12.10;99.90;;;;;;4992001;28;20042;-49
2023/03/13 07:22:38;;;;;;;11.73;4.43;;;12.20;99.90;;;;;;4993657;28;20073;-51
2023/03/13 07:25:05;;;;;;;15.50;4.25;;;12.30;99.90;;;;;;4991768;28;20524;-48
2023/03/13 07:27:31;;;;;;;12.38;4.32;;;12.10;99.90;;;;;;4992630;28;20049;-49
2023/03/13 07:29:57;;;;;;;8.82;3.95;;;12.10;99.90;;;;;;4992924;28;20042;-50
2023/03/13 07:32:23;;;;;;;10.45;4.18;;;12.10;99.90;;;;;;4991684;28;20065;-50
2023/03/13 07:34:48;;;;;;;10.45;3.92;;;12.20;99.90;;;;;;4988438;28;20501;-50
2023/03/13 07:37:15;;;;;;;11.10;4.03;;;12.20;99.90;;;;;;4989219;28;20042;-49
2023/03/13 07:39:42;;;;;;;9.73;4.18;;;12.20;99.90;;;;;;4990545;28;20050;-47
2023/03/13 07:42:11;;;;;;;8.32;4.07;;;12.20;99.90;;;;;;4993350;28;20034;-49
2023/03/13 07:44:37;;;;;;;10.40;4.38;;;12.20;99.90;;;;;;4987696;28;20041;-49
2023/03/13 07:47:03;;;;;;;11.13;4.25;;;12.10;99.90;;;;;;4983984;28;20092;-50
2023/03/13 07:49:29;;;;;;;12.82;4.35;;;12.10;99.90;;;;;;4983804;28;20044;-48
2023/03/13 07:51:54;;;;;;;11.23;4.70;;;12.00;99.90;;;;;;4983547;28;20462;-48
2023/03/13 07:54:20;;;;;;;13.07;4.55;;;12.10;99.90;;;;;;4984386;28;20038;-48
2023/03/13 07:56:46;;;;;;;9.15;4.75;;;12.00;99.90;;;;;;4982063;28;20481;-48
2023/03/13 07:59:11;;;;;;;11.48;4.30;;;12.10;99.90;;;;;;4982847;28;20499;-49
2023/03/13 08:01:37;;;;;;;11.43;4.28;;;11.90;99.90;;;;;;4984403;28;20655;-52
2023/03/13 08:04:04;;;;;;;10.88;4.45;;;11.90;99.90;;;;;;4982611;28;20042;-48
2023/03/13 08:06:34;;;;;;;8.48;4.10;;;12.00;99.90;;;;;;4983094;28;20390;-48
2023/03/13 08:09:00;;;;;;;8.30;4.25;;;11.80;99.90;;;;;;4982887;28;21240;-52
2023/03/13 08:11:27;;;;;;;10.38;4.05;;;11.90;99.90;;;;;;4983340;28;20121;-47
2023/03/13 08:13:54;;;;;;;7.85;4.53;;;11.80;99.90;;;;;;4983102;28;20088;-48
2023/03/13 08:16:25;;;;;;;10.88;4.30;;;12.00;99.90;;;;;;4983787;28;20046;-49
2023/03/13 08:18:56;;;;;;;9.95;4.10;;;12.10;99.90;;;;;;4984582;28;20046;-50
2023/03/13 08:21:24;;;;;;;10.88;4.72;;;11.90;99.90;;;;;;4982372;28;20030;-50
2023/03/13 08:23:54;;;;;;;13.02;3.95;;;11.90;99.90;;;;;;4982078;28;20030;-50
2023/03/13 08:26:22;;;;;;;10.13;4.50;;;12.10;99.90;;;;;;4982046;28;20054;-48
2023/03/13 08:28:52;;;;;;;10.80;4.13;;;12.00;99.90;;;;;;4981898;28;20042;-48
2023/03/13 08:31:20;;;;;;;10.23;4.22;;;12.20;99.90;;;;;;4983414;28;20038;-52
2023/03/13 08:33:47;;;;;;;8.55;3.97;;;12.20;99.90;;;;;;4982938;28;20051;-49
2023/03/13 08:36:25;;;;;;;7.95;3.72;;;12.10;99.90;;;;;;4983623;28;20129;-52
2023/03/13 08:38:52;;;;;;;7.25;3.80;;;12.30;99.90;;;;;;4981183;28;20081;-48
2023/03/13 08:41:29;;;;;;;9.85;4.00;;;12.30;99.90;;;;;;4981095;28;20049;-51
2023/03/13 08:43:56;;;;;;;8.90;3.50;;;12.40;99.90;;;;;;4981977;28;20026;-47
2023/03/13 08:46:22;;;;;;;6.35;3.40;;;12.50;99.90;;;;;;4981705;28;20080;-50
2023/03/13 08:48:50;;;;;;;9.68;3.45;;;12.50;99.90;;;;;;4982882;28;20162;-51
2023/03/13 08:51:16;;;;;;;8.13;3.55;;;12.60;99.90;;;;;;4983261;28;20035;-48
2023/03/13 08:53:43;;;;;;;7.93;3.50;;;12.80;99.90;;;;;;4980426;28;20034;-45
2023/03/13 08:56:11;;;;;;;8.20;2.95;;;12.90;99.90;;;;;;4982171;28;20042;-47
2023/03/13 08:58:37;;;;;;;8.35;3.17;;;12.90;99.90;;;;;;4987964;28;20093;-48
2023/03/13 09:01:08;;;;;;;10.35;3.80;;;12.80;99.90;;;;;;4988867;28;20034;-49
2023/03/13 09:03:34;;;;;;;9.48;3.45;;;12.80;99.90;;;;;;4988807;28;20463;-49
2023/03/13 09:06:00;;;;;;;8.30;3.35;;;12.80;99.90;;;;;;4989801;28;20363;-50
2023/03/13 09:08:27;;;;;;;8.68;3.40;;;12.80;99.90;;;;;;4988850;28;20096;-47
2023/03/13 09:11:01;;;;;;;7.07;3.20;;;12.70;99.90;;;;;;4989906;28;20513;-47
2023/03/13 09:13:28;;;;;;;8.00;3.33;;;12.60;99.90;;;;;;4988990;28;20034;-47
2023/03/13 09:15:59;;;;;;;8.55;3.20;;;12.60;99.90;;;;;;4991263;28;20038;-48
2023/03/13 09:18:26;;;;;;;8.02;3.15;;;12.70;99.90;;;;;;4989088;28;20038;-49
2023/03/13 09:20:52;;;;;;;6.75;3.10;;;12.70;99.90;;;;;;4989166;28;20466;-47
2023/03/13 09:23:19;;;;;;;8.40;3.22;;;12.70;99.90;;;;;;4989925;28;20522;-49
2023/03/13 09:25:45;;;;;;;7.00;2.50;;;12.70;99.90;;;;;;4989403;28;20046;-47
2023/03/13 09:28:11;;;;;;;8.02;2.55;;;12.80;99.90;;;;;;4990075;28;20100;-48
2023/03/13 09:30:37;;;;;;;9.00;2.65;;;12.80;99.90;;;;;;4989569;28;20042;-48
2023/03/13 09:33:03;;;;;;;7.22;2.25;;;12.80;99.90;;;;;;4988355;28;20077;-47
2023/03/13 09:35:28;;;;;;;8.98;2.47;;;12.80;99.90;;;;;;4985719;28;20096;-52
2023/03/13 09:37:54;;;;;;;6.28;2.28;;;12.90;99.90;;;;;;4986949;28;20162;-49
2023/03/13 09:40:22;;;;;;;5.53;2.10;;;12.90;99.90;;;;;;4989215;28;20109;-49
2023/03/13 09:42:57;;;;;;;6.97;2.45;;;13.00;99.90;;;;;;4987922;28;20517;-48
2023/03/13 09:45:38;;;;;;;8.50;2.00;;;13.10;99.90;;;;;;4989312;28;20430;-47
2023/03/13 09:48:22;;;;;;;7.35;2.50;;;13.10;99.90;;;;;;4988254;28;20070;-50
2023/03/13 09:51:12;;;;;;;8.85;2.50;;;13.20;99.90;;;;;;4988254;28;20556;-50
2023/03/13 09:53:53;;;;;;;11.38;2.95;;;13.40;99.90;;;;;;4989563;28;20040;-49
2023/03/13 09:56:24;;;;;;;8.15;2.33;;;13.50;99.90;;;;;;4989370;28;20043;-50
2023/03/13 09:59:21;;;;;;;8.85;2.72;;;13.60;99.90;;;;;;4990008;28;20125;-49
2023/03/13 10:01:48;;;;;;;10.63;2.80;;;13.70;99.90;;;;;;4989739;28;20050;-50
2023/03/13 10:04:36;;;;;;;12.77;3.03;;;13.80;99.90;;;;;;4988982;28;20751;-52
2023/03/13 10:07:03;;;;;;;9.88;3.03;;;13.80;99.90;;;;;;4988808;28;20367;-52
2023/03/13 10:09:31;;;;;;;9.60;2.50;;;13.80;99.90;;;;;;4986871;28;20238;-51
2023/03/13 10:12:19;;;;;;;10.05;2.65;;;13.80;99.90;;;;;;4984277;28;20128;-47
2023/03/13 10:14:50;;;;;;;12.52;3.00;;;13.80;99.90;;;;;;4989125;28;20042;-47
2023/03/13 10:17:29;;;;;;;11.35;2.70;;;13.80;99.90;;;;;;4984259;28;20123;-48
2023/03/13 10:20:00;;;;;;;11.45;2.13;;;13.90;99.90;;;;;;4990585;28;20088;-49
2023/03/13 10:22:30;;;;;;;10.15;2.40;;;13.80;99.90;;;;;;4992097;28;20202;-49
2023/03/13 10:24:59;;;;;;;9.88;3.03;;;13.90;99.90;;;;;;4992942;28;20046;-52
2023/03/13 10:27:25;;;;;;;10.30;2.90;;;14.00;99.90;;;;;;4991460;28;20081;-51
2023/03/13 10:29:51;;;;;;;12.60;2.53;;;14.10;99.90;;;;;;4994107;28;20077;-52
2023/03/13 10:32:18;;;;;;;13.20;2.92;;;14.10;99.90;;;;;;4993137;28;20042;-51
2023/03/13 10:35:00;;;;;;;14.85;3.13;;;14.20;99.90;;;;;;4992791;28;20043;-49
2023/03/13 10:37:29;;;;;;;9.82;2.60;;;14.10;99.90;;;;;;4992396;28;20043;-51
2023/03/13 10:40:11;;;;;;;10.85;2.88;;;14.10;99.90;;;;;;4993385;28;20038;-47
2023/03/13 10:42:43;;;;;;;8.23;2.28;;;14.10;99.90;;;;;;4991711;28;20049;-51
2023/03/13 10:45:18;;;;;;;9.60;2.60;;;14.30;99.90;;;;;;4993823;28;20077;-49
2023/03/13 10:47:44;;;;;;;8.85;2.38;;;14.40;99.90;;;;;;4993323;28;20091;-46
2023/03/13 10:50:20;;;;;;;9.98;2.80;;;14.50;99.90;;;;;;4993744;28;20092;-51
2023/03/13 10:52:49;;;;;;;7.78;2.28;;;14.60;99.90;;;;;;4991712;28;20053;-49
2023/03/13 10:55:17;;;;;;;10.15;2.35;;;14.60;99.90;;;;;;4992255;28;20050;-51
2023/03/13 10:58:04;;;;;;;8.45;2.28;;;14.70;99.90;;;;;;4991070;28;20049;-46
2023/03/13 11:00:37;;;;;;;10.40;2.50;;;14.90;99.90;;;;;;4971250;28;20125;-48
2023/03/13 11:03:13;;;;;;;6.53;1.85;;;15.00;99.90;;;;;;4992201;28;20027;-48
2023/03/13 11:05:42;;;;;;;7.80;1.98;;;15.00;99.90;;;;;;4990152;28;20038;-50
2023/03/13 11:08:32;;;;;;;5.03;1.48;;;15.20;99.90;;;;;;4989312;28;20077;-49
2023/03/13 11:11:00;;;;;;;7.90;1.75;;;15.40;99.90;;;;;;4991103;28;20444;-50
2023/03/13 11:13:34;;;;;;;6.90;1.90;;;15.50;99.90;;;;;;4992364;28;20034;-49
2023/03/13 11:16:12;;;;;;;8.23;1.73;;;15.70;99.90;;;;;;4988657;28;20117;-48
2023/03/13 11:18:46;;;;;;;4.90;1.48;;;15.90;99.90;;;;;;4989671;28;20050;-44
2023/03/13 11:21:26;;;;;;;5.82;1.45;;;16.00;99.90;;;;;;4989880;28;20386;-46
2023/03/13 11:24:06;;;;;;;5.15;1.58;;;16.10;99.90;;;;;;4988423;28;20042;-49
2023/03/13 11:26:37;;;;;;;6.80;1.60;;;16.30;99.90;;;;;;4988196;28;20402;-51
2023/03/13 11:29:08;;;;;;;6.57;1.60;;;16.40;99.90;;;;;;4987074;28;20073;-49
2023/03/13 11:31:45;;;;;;;5.72;1.50;;;16.50;99.90;;;;;;4991092;28;20185;-48
2023/03/13 11:34:25;;;;;;;7.40;1.60;;;16.60;99.90;;;;;;4988396;28;20034;-50
2023/03/13 11:37:13;;;;;;;6.47;1.52;;;16.60;99.90;;;;;;4990085;28;20119;-51
2023/03/13 11:39:39;;;;;;;7.18;1.67;;;16.70;99.90;;;;;;4986663;28;20042;-49
2023/03/13 11:42:43;;;;;;;6.00;1.52;;;16.70;99.90;;;;;;4988729;28;20177;-51
2023/03/13 11:45:42;;;;;;;11.25;1.92;;;16.70;99.90;;;;;;4985934;28;20097;-48
2023/03/13 11:48:14;;;;;;;7.53;1.80;;;16.50;99.90;;;;;;4987089;28;20045;-46
2023/03/13 11:51:16;;;;;;;7.68;1.90;;;16.50;99.90;;;;;;4982338;28;20082;-48
2023/03/13 11:53:57;;;;;;;6.78;1.85;;;16.40;99.90;;;;;;4984963;28;20576;-49
2023/03/13 11:56:40;;;;;;;7.45;1.40;;;16.40;99.90;;;;;;4984161;28;20038;-47
2023/03/13 11:59:05;;;;;;;6.88;2.00;;;16.40;99.90;;;;;;4980936;28;20058;-48
2023/03/13 12:01:40;;;;;;;6.57;1.80;;;16.30;99.90;;;;;;4987767;28;20046;-48
2023/03/13 12:04:17;;;;;;;6.88;1.65;;;16.40;99.90;;;;;;4984362;28;20035;-48
2023/03/13 12:06:53;;;;;;;7.28;1.77;;;16.50;99.90;;;;;;4981366;28;20070;-51
2023/03/13 12:09:40;;;;;;;5.80;1.48;;;16.70;99.90;;;;;;4988756;28;20078;-47
2023/03/13 12:12:34;;;;;;;7.25;1.80;;;16.90;99.90;;;;;;4969657;28;20050;-48
2023/03/13 12:15:36;;;;;;;6.03;1.45;;;17.20;99.90;;;;;;4984544;28;20141;-49
2023/03/13 12:18:16;;;;;;;6.45;1.75;;;17.30;99.90;;;;;;4988369;28;20046;-48
2023/03/13 12:20:46;;;;;;;9.75;1.67;;;17.40;99.90;;;;;;4988845;28;20047;-47
2023/03/13 12:23:37;;;;;;;7.22;1.60;;;17.20;99.90;;;;;;4985696;28;20042;-48
2023/03/13 12:26:03;;;;;;;5.78;1.63;;;17.10;99.90;;;;;;4978420;28;20058;-48
2023/03/13 12:28:42;;;;;;;6.80;1.65;;;17.00;99.90;;;;;;4980379;28;20030;-51
2023/03/13 12:31:30;;;;;;;5.70;1.70;;;16.80;99.90;;;;;;4980630;28;20158;-49
2023/03/13 12:34:33;;;;;;;6.68;1.38;;;16.70;99.90;;;;;;4980577;28;20125;-49
2023/03/13 12:37:17;;;;;;;6.93;1.80;;;16.60;99.90;;;;;;4981818;28;20386;-50
2023/03/13 12:39:56;;;;;;;7.88;2.10;;;16.50;99.90;;;;;;4982565;28;20077;-46
2023/03/13 12:42:47;;;;;;;8.88;2.38;;;16.40;99.90;;;;;;4979618;28;20043;-50
2023/03/13 12:45:23;;;;;;;8.38;1.70;;;16.30;99.90;;;;;;4980849;28;20030;-48
2023/03/13 12:48:09;;;;;;;8.13;2.05;;;16.30;99.90;;;;;;4980718;28;20034;-48
2023/03/13 12:51:13;;;;;;;9.85;2.30;;;16.30;99.90;;;;;;4980612;28;20490;-48
2023/03/13 12:53:46;;;;;;;9.35;2.50;;;16.40;99.90;;;;;;4957991;28;20034;-48